sensor_id;sensor_type;location;lat;lon;timestamp;temperature;humidity
5924;DHT22;2987;50.884;14.818;2023-12-14T00:00:31;5.30;99.90
5924;DHT22;2987;50.884;14.818;2023-12-14T00:02:58;5.20;99.90
5924;DHT22;2987;50.884;14.818;2023-12-14T00:05:24;5.10;99.90
5924;DHT22;2987;50.884;14.818;2023-12-14T00:07:50;4.80;99.90
5924;DHT22;2987;50.884;14.818;2023-12-14T00:10:16;4.90;99.90
5924;DHT22;2987;50.884;14.818;2023-12-14T00:12:44;4.80;99.90
5924;DHT22;2987;50.884;14.818;2023-12-14T00:15:10;4.90;99.90
5924;DHT22;2987;50.884;14.818;2023-12-14T00:17:36;4.80;99.90
5924;DHT22;2987;50.884;14.818;2023-12-14T00:20:02;5.10;99.90
5924;DHT22;2987;50.884;14.818;2023-12-14T00:22:29;4.80;99.90
5924;DHT22;2987;50.884;14.818;2023-12-14T00:24:55;5.00;99.90
5924;DHT22;2987;50.884;14.818;2023-12-14T00:27:21;4.80;99.90
5924;DHT22;2987;50.884;14.818;2023-12-14T00:29:47;4.80;99.90
5924;DHT22;2987;50.884;14.818;2023-12-14T00:32:12;4.80;99.90
5924;DHT22;2987;50.884;14.818;2023-12-14T00:34:38;4.90;99.90
5924;DHT22;2987;50.884;14.818;2023-12-14T00:37:04;4.90;99.90
5924;DHT22;2987;50.884;14.818;2023-12-14T00:39:30;4.80;99.90
5924;DHT22;2987;50.884;14.818;2023-12-14T00:41:57;4.80;99.90
5924;DHT22;2987;50.884;14.818;2023-12-14T00:44:23;4.80;99.90
5924;DHT22;2987;50.884;14.818;2023-12-14T00:46:49;4.90;99.90
5924;DHT22;2987;50.884;14.818;2023-12-14T00:49:15;4.90;99.90
5924;DHT22;2987;50.884;14.818;2023-12-14T00:51:43;4.80;99.90
5924;DHT22;2987;50.884;14.818;2023-12-14T00:54:09;5.00;99.90
5924;DHT22;2987;50.884;14.818;2023-12-14T00:56:35;4.80;99.90
5924;DHT22;2987;50.884;14.818;2023-12-14T00:59:01;5.00;99.90
5924;DHT22;2987;50.884;14.818;2023-12-14T01:01:27;4.90;99.90
5924;DHT22;2987;50.884;14.818;2023-12-14T01:03:53;4.80;99.90
5924;DHT22;2987;50.884;14.818;2023-12-14T01:06:19;4.80;99.90
5924;DHT22;2987;50.884;14.818;2023-12-14T01:08:45;4.90;99.90
5924;DHT22;2987;50.884;14.818;2023-12-14T01:11:11;4.80;99.90
5924;DHT22;2987;50.884;14.818;2023-12-14T01:13:37;4.90;99.90
5924;DHT22;2987;50.884;14.818;2023-12-14T01:16:04;4.80;99.90
5924;DHT22;2987;50.884;14.818;2023-12-14T01:18:30;5.00;99.90
5924;DHT22;2987;50.884;14.818;2023-12-14T01:20:56;4.80;99.90
5924;DHT22;2987;50.884;14.818;2023-12-14T01:23:21;4.80;99.90
5924;DHT22;2987;50.884;14.818;2023-12-14T01:25:47;5.00;99.90
5924;DHT22;2987;50.884;14.818;2023-12-14T01:28:14;4.80;99.90
5924;DHT22;2987;50.884;14.818;2023-12-14T01:30:40;4.80;99.90
5924;DHT22;2987;50.884;14.818;2023-12-14T01:33:06;4.80;99.90
5924;DHT22;2987;50.884;14.818;2023-12-14T01:35:32;4.80;99.90
5924;DHT22;2987;50.884;14.818;2023-12-14T01:37:58;5.00;99.90
5924;DHT22;2987;50.884;14.818;2023-12-14T01:40:24;4.80;99.90
5924;DHT22;2987;50.884;14.818;2023-12-14T01:42:50;5.10;99.90
5924;DHT22;2987;50.884;14.818;2023-12-14T01:45:16;4.80;99.90
5924;DHT22;2987;50.884;14.818;2023-12-14T01:47:43;4.80;99.90
5924;DHT22;2987;50.884;14.818;2023-12-14T01:50:09;4.80;99.90
5924;DHT22;2987;50.884;14.818;2023-12-14T01:52:35;4.80;99.90
5924;DHT22;2987;50.884;14.818;2023-12-14T01:55:01;4.80;99.90
5924;DHT22;2987;50.884;14.818;2023-12-14T01:57:28;5.00;99.90
5924;DHT22;2987;50.884;14.818;2023-12-14T01:59:55;4.80;99.90
5924;DHT22;2987;50.884;14.818;2023-12-14T02:02:21;4.90;99.90
5924;DHT22;2987;50.884;14.818;2023-12-14T02:04:47;4.60;99.90
5924;DHT22;2987;50.884;14.818;2023-12-14T02:07:13;4.80;99.90
5924;DHT22;2987;50.884;14.818;2023-12-14T02:09:39;4.50;99.90
5924;DHT22;2987;50.884;14.818;2023-12-14T02:12:05;4.50;99.90
5924;DHT22;2987;50.884;14.818;2023-12-14T02:14:31;4.50;99.90
5924;DHT22;2987;50.884;14.818;2023-12-14T02:16:57;4.50;99.90
5924;DHT22;2987;50.884;14.818;2023-12-14T02:19:24;4.30;99.90
5924;DHT22;2987;50.884;14.818;2023-12-14T02:21:50;4.30;99.90
5924;DHT22;2987;50.884;14.818;2023-12-14T02:24:16;4.30;99.90
5924;DHT22;2987;50.884;14.818;2023-12-14T02:26:43;4.30;99.90
5924;DHT22;2987;50.884;14.818;2023-12-14T02:29:09;4.20;99.90
5924;DHT22;2987;50.884;14.818;2023-12-14T02:31:34;4.20;99.90
5924;DHT22;2987;50.884;14.818;2023-12-14T02:34:01;4.20;99.90
5924;DHT22;2987;50.884;14.818;2023-12-14T02:36:27;4.20;99.90
5924;DHT22;2987;50.884;14.818;2023-12-14T02:38:53;4.20;99.90
5924;DHT22;2987;50.884;14.818;2023-12-14T02:41:19;4.20;99.90
5924;DHT22;2987;50.884;14.818;2023-12-14T02:43:45;4.20;99.90
5924;DHT22;2987;50.884;14.818;2023-12-14T02:46:10;4.20;99.90
5924;DHT22;2987;50.884;14.818;2023-12-14T02:48:41;4.10;99.90
5924;DHT22;2987;50.884;14.818;2023-12-14T02:51:12;3.90;99.90
5924;DHT22;2987;50.884;14.818;2023-12-14T02:53:39;4.00;99.90
5924;DHT22;2987;50.884;14.818;2023-12-14T02:56:05;3.90;99.90
5924;DHT22;2987;50.884;14.818;2023-12-14T02:58:31;4.00;99.90
5924;DHT22;2987;50.884;14.818;2023-12-14T03:00:57;4.00;99.90
5924;DHT22;2987;50.884;14.818;2023-12-14T03:03:23;4.00;99.90
5924;DHT22;2987;50.884;14.818;2023-12-14T03:05:49;3.90;99.90
5924;DHT22;2987;50.884;14.818;2023-12-14T03:08:15;3.80;99.90
5924;DHT22;2987;50.884;14.818;2023-12-14T03:10:41;3.90;99.90
5924;DHT22;2987;50.884;14.818;2023-12-14T03:13:07;3.90;99.90
5924;DHT22;2987;50.884;14.818;2023-12-14T03:15:33;3.90;99.90
5924;DHT22;2987;50.884;14.818;2023-12-14T03:17:59;4.00;99.90
5924;DHT22;2987;50.884;14.818;2023-12-14T03:20:25;3.80;99.90
5924;DHT22;2987;50.884;14.818;2023-12-14T03:22:51;4.00;99.90
5924;DHT22;2987;50.884;14.818;2023-12-14T03:25:17;3.80;99.90
5924;DHT22;2987;50.884;14.818;2023-12-14T03:27:43;3.80;99.90
5924;DHT22;2987;50.884;14.818;2023-12-14T03:30:09;4.00;99.90
5924;DHT22;2987;50.884;14.818;2023-12-14T03:32:35;3.90;99.90
5924;DHT22;2987;50.884;14.818;2023-12-14T03:35:01;4.10;99.90
5924;DHT22;2987;50.884;14.818;2023-12-14T03:37:27;4.00;99.90
5924;DHT22;2987;50.884;14.818;2023-12-14T03:39:53;3.90;99.90
5924;DHT22;2987;50.884;14.818;2023-12-14T03:42:20;4.10;99.90
5924;DHT22;2987;50.884;14.818;2023-12-14T03:44:47;4.10;99.90
5924;DHT22;2987;50.884;14.818;2023-12-14T03:47:13;4.10;99.90
5924;DHT22;2987;50.884;14.818;2023-12-14T03:49:39;4.20;99.90
5924;DHT22;2987;50.884;14.818;2023-12-14T03:52:05;4.20;99.90
5924;DHT22;2987;50.884;14.818;2023-12-14T03:54:31;4.20;99.90
5924;DHT22;2987;50.884;14.818;2023-12-14T03:56:57;4.20;99.90
5924;DHT22;2987;50.884;14.818;2023-12-14T03:59:23;4.20;99.90
5924;DHT22;2987;50.884;14.818;2023-12-14T04:01:49;4.20;99.90
5924;DHT22;2987;50.884;14.818;2023-12-14T04:04:15;4.20;99.90
5924;DHT22;2987;50.884;14.818;2023-12-14T04:06:41;4.20;99.90
5924;DHT22;2987;50.884;14.818;2023-12-14T04:09:07;4.20;99.90
5924;DHT22;2987;50.884;14.818;2023-12-14T04:11:33;4.30;99.90
5924;DHT22;2987;50.884;14.818;2023-12-14T04:13:59;4.20;99.90
5924;DHT22;2987;50.884;14.818;2023-12-14T04:16:25;4.30;99.90
5924;DHT22;2987;50.884;14.818;2023-12-14T04:18:51;4.20;99.90
5924;DHT22;2987;50.884;14.818;2023-12-14T04:21:17;4.30;99.90
5924;DHT22;2987;50.884;14.818;2023-12-14T04:23:43;4.50;99.90
5924;DHT22;2987;50.884;14.818;2023-12-14T04:26:10;4.30;99.90
5924;DHT22;2987;50.884;14.818;2023-12-14T04:28:36;4.30;99.90
5924;DHT22;2987;50.884;14.818;2023-12-14T04:31:02;4.30;99.90
5924;DHT22;2987;50.884;14.818;2023-12-14T04:33:28;4.30;99.90
5924;DHT22;2987;50.884;14.818;2023-12-14T04:35:54;4.30;99.90
5924;DHT22;2987;50.884;14.818;2023-12-14T04:38:20;4.50;99.90
5924;DHT22;2987;50.884;14.818;2023-12-14T04:40:46;4.50;99.90
5924;DHT22;2987;50.884;14.818;2023-12-14T04:43:12;4.50;99.90
5924;DHT22;2987;50.884;14.818;2023-12-14T04:45:38;4.50;99.90
5924;DHT22;2987;50.884;14.818;2023-12-14T04:48:04;4.50;99.90
5924;DHT22;2987;50.884;14.818;2023-12-14T04:50:30;4.30;99.90
5924;DHT22;2987;50.884;14.818;2023-12-14T04:52:56;4.30;99.90
5924;DHT22;2987;50.884;14.818;2023-12-14T04:55:22;4.30;99.90
5924;DHT22;2987;50.884;14.818;2023-12-14T04:57:48;4.30;99.90
5924;DHT22;2987;50.884;14.818;2023-12-14T05:00:15;4.30;99.90
5924;DHT22;2987;50.884;14.818;2023-12-14T05:02:41;4.50;99.90
5924;DHT22;2987;50.884;14.818;2023-12-14T05:05:07;4.30;99.90
5924;DHT22;2987;50.884;14.818;2023-12-14T05:07:33;4.40;99.90
5924;DHT22;2987;50.884;14.818;2023-12-14T05:10:00;4.70;99.90
5924;DHT22;2987;50.884;14.818;2023-12-14T05:12:26;4.40;99.90
5924;DHT22;2987;50.884;14.818;2023-12-14T05:14:52;4.50;99.90
5924;DHT22;2987;50.884;14.818;2023-12-14T05:17:18;4.50;99.90
5924;DHT22;2987;50.884;14.818;2023-12-14T05:19:45;4.30;99.90
5924;DHT22;2987;50.884;14.818;2023-12-14T05:22:12;4.30;99.90
5924;DHT22;2987;50.884;14.818;2023-12-14T05:24:38;4.30;99.90
5924;DHT22;2987;50.884;14.818;2023-12-14T05:27:04;4.20;99.90
5924;DHT22;2987;50.884;14.818;2023-12-14T05:29:30;4.30;99.90
5924;DHT22;2987;50.884;14.818;2023-12-14T05:31:57;4.30;99.90
5924;DHT22;2987;50.884;14.818;2023-12-14T05:34:23;4.30;99.90
5924;DHT22;2987;50.884;14.818;2023-12-14T05:36:49;4.30;99.90
5924;DHT22;2987;50.884;14.818;2023-12-14T05:39:15;4.50;99.90
5924;DHT22;2987;50.884;14.818;2023-12-14T05:41:41;4.50;99.90
5924;DHT22;2987;50.884;14.818;2023-12-14T05:44:07;4.50;99.90
5924;DHT22;2987;50.884;14.818;2023-12-14T05:46:33;4.40;99.90
5924;DHT22;2987;50.884;14.818;2023-12-14T05:48:59;4.70;99.90
5924;DHT22;2987;50.884;14.818;2023-12-14T05:51:32;4.50;99.90
5924;DHT22;2987;50.884;14.818;2023-12-14T05:53:59;4.60;99.90
5924;DHT22;2987;50.884;14.818;2023-12-14T05:56:25;4.60;99.90
5924;DHT22;2987;50.884;14.818;2023-12-14T05:58:51;4.50;99.90
5924;DHT22;2987;50.884;14.818;2023-12-14T06:01:18;4.50;99.90
5924;DHT22;2987;50.884;14.818;2023-12-14T06:03:44;4.50;99.90
5924;DHT22;2987;50.884;14.818;2023-12-14T06:06:11;4.50;99.90
5924;DHT22;2987;50.884;14.818;2023-12-14T06:08:39;4.60;99.90
5924;DHT22;2987;50.884;14.818;2023-12-14T06:11:05;4.50;99.90
5924;DHT22;2987;50.884;14.818;2023-12-14T06:13:34;4.50;99.90
5924;DHT22;2987;50.884;14.818;2023-12-14T06:16:00;4.50;99.90
5924;DHT22;2987;50.884;14.818;2023-12-14T06:18:26;4.60;99.90
5924;DHT22;2987;50.884;14.818;2023-12-14T06:20:52;4.70;99.90
5924;DHT22;2987;50.884;14.818;2023-12-14T06:23:18;4.50;99.90
5924;DHT22;2987;50.884;14.818;2023-12-14T06:25:45;4.60;99.90
5924;DHT22;2987;50.884;14.818;2023-12-14T06:28:10;4.60;99.90
5924;DHT22;2987;50.884;14.818;2023-12-14T06:30:38;4.50;99.90
5924;DHT22;2987;50.884;14.818;2023-12-14T06:33:04;4.50;99.90
5924;DHT22;2987;50.884;14.818;2023-12-14T06:35:29;4.50;99.90
5924;DHT22;2987;50.884;14.818;2023-12-14T06:37:55;4.60;99.90
5924;DHT22;2987;50.884;14.818;2023-12-14T06:40:21;4.60;99.90
5924;DHT22;2987;50.884;14.818;2023-12-14T06:42:47;4.50;99.90
5924;DHT22;2987;50.884;14.818;2023-12-14T06:45:15;4.50;99.90
5924;DHT22;2987;50.884;14.818;2023-12-14T06:47:41;4.60;99.90
5924;DHT22;2987;50.884;14.818;2023-12-14T06:50:09;4.50;99.90
5924;DHT22;2987;50.884;14.818;2023-12-14T06:52:35;4.50;99.90
5924;DHT22;2987;50.884;14.818;2023-12-14T06:55:01;4.50;99.90
5924;DHT22;2987;50.884;14.818;2023-12-14T06:57:27;4.50;99.90
5924;DHT22;2987;50.884;14.818;2023-12-14T06:59:55;4.60;99.90
5924;DHT22;2987;50.884;14.818;2023-12-14T07:02:21;4.60;99.90
5924;DHT22;2987;50.884;14.818;2023-12-14T07:04:47;4.50;99.90
5924;DHT22;2987;50.884;14.818;2023-12-14T07:07:13;4.70;99.90
5924;DHT22;2987;50.884;14.818;2023-12-14T07:09:39;4.60;99.90
5924;DHT22;2987;50.884;14.818;2023-12-14T07:12:05;4.60;99.90
5924;DHT22;2987;50.884;14.818;2023-12-14T07:14:31;4.50;99.90
5924;DHT22;2987;50.884;14.818;2023-12-14T07:16:57;4.50;99.90
5924;DHT22;2987;50.884;14.818;2023-12-14T07:19:23;4.60;99.90
5924;DHT22;2987;50.884;14.818;2023-12-14T07:21:49;4.60;99.90
5924;DHT22;2987;50.884;14.818;2023-12-14T07:24:15;4.40;99.90
5924;DHT22;2987;50.884;14.818;2023-12-14T07:26:41;4.60;99.90
5924;DHT22;2987;50.884;14.818;2023-12-14T07:29:07;4.80;99.90
5924;DHT22;2987;50.884;14.818;2023-12-14T07:31:33;5.00;99.90
5924;DHT22;2987;50.884;14.818;2023-12-14T07:33:59;4.90;99.90
5924;DHT22;2987;50.884;14.818;2023-12-14T07:36:25;4.80;99.90
5924;DHT22;2987;50.884;14.818;2023-12-14T07:38:51;4.80;99.90
5924;DHT22;2987;50.884;14.818;2023-12-14T07:41:18;4.90;99.90
5924;DHT22;2987;50.884;14.818;2023-12-14T07:43:44;4.80;99.90
5924;DHT22;2987;50.884;14.818;2023-12-14T07:46:10;4.80;99.90
5924;DHT22;2987;50.884;14.818;2023-12-14T07:48:36;5.00;99.90
5924;DHT22;2987;50.884;14.818;2023-12-14T07:51:02;4.80;99.90
5924;DHT22;2987;50.884;14.818;2023-12-14T07:53:28;4.90;99.90
5924;DHT22;2987;50.884;14.818;2023-12-14T07:55:54;5.30;99.90
5924;DHT22;2987;50.884;14.818;2023-12-14T07:58:20;4.80;99.90
5924;DHT22;2987;50.884;14.818;2023-12-14T08:00:47;5.20;99.90
5924;DHT22;2987;50.884;14.818;2023-12-14T08:03:13;5.10;99.90
5924;DHT22;2987;50.884;14.818;2023-12-14T08:05:39;5.10;99.90
5924;DHT22;2987;50.884;14.818;2023-12-14T08:08:05;5.10;99.90
5924;DHT22;2987;50.884;14.818;2023-12-14T08:10:31;5.10;99.90
5924;DHT22;2987;50.884;14.818;2023-12-14T08:12:57;5.10;99.90
5924;DHT22;2987;50.884;14.818;2023-12-14T08:15:23;5.30;99.90
5924;DHT22;2987;50.884;14.818;2023-12-14T08:17:49;5.20;99.90
5924;DHT22;2987;50.884;14.818;2023-12-14T08:20:15;5.10;99.90
5924;DHT22;2987;50.884;14.818;2023-12-14T08:22:41;5.30;99.90
5924;DHT22;2987;50.884;14.818;2023-12-14T08:25:13;5.20;99.90
5924;DHT22;2987;50.884;14.818;2023-12-14T08:27:40;5.30;99.90
5924;DHT22;2987;50.884;14.818;2023-12-14T08:30:07;5.10;99.90
5924;DHT22;2987;50.884;14.818;2023-12-14T08:32:34;5.20;99.90
5924;DHT22;2987;50.884;14.818;2023-12-14T08:35:00;5.20;99.90
5924;DHT22;2987;50.884;14.818;2023-12-14T08:37:26;5.40;99.90
5924;DHT22;2987;50.884;14.818;2023-12-14T08:39:52;5.60;99.90
5924;DHT22;2987;50.884;14.818;2023-12-14T08:42:18;5.70;99.90
5924;DHT22;2987;50.884;14.818;2023-12-14T08:44:44;5.60;99.90
5924;DHT22;2987;50.884;14.818;2023-12-14T08:47:10;6.00;99.90
5924;DHT22;2987;50.884;14.818;2023-12-14T08:49:37;6.00;99.90
5924;DHT22;2987;50.884;14.818;2023-12-14T08:52:03;5.80;99.90
5924;DHT22;2987;50.884;14.818;2023-12-14T08:54:30;5.80;99.90
5924;DHT22;2987;50.884;14.818;2023-12-14T08:56:56;6.10;99.90
5924;DHT22;2987;50.884;14.818;2023-12-14T08:59:22;5.80;99.90
5924;DHT22;2987;50.884;14.818;2023-12-14T09:01:48;6.10;99.90
5924;DHT22;2987;50.884;14.818;2023-12-14T09:04:14;6.00;99.90
5924;DHT22;2987;50.884;14.818;2023-12-14T09:06:40;6.10;99.90
5924;DHT22;2987;50.884;14.818;2023-12-14T09:09:10;5.90;99.90
5924;DHT22;2987;50.884;14.818;2023-12-14T09:11:37;6.30;99.90
5924;DHT22;2987;50.884;14.818;2023-12-14T09:14:03;6.10;99.90
5924;DHT22;2987;50.884;14.818;2023-12-14T09:16:29;6.30;99.90
5924;DHT22;2987;50.884;14.818;2023-12-14T09:18:55;6.10;99.90
5924;DHT22;2987;50.884;14.818;2023-12-14T09:21:20;6.30;99.90
5924;DHT22;2987;50.884;14.818;2023-12-14T09:23:46;6.20;99.90
5924;DHT22;2987;50.884;14.818;2023-12-14T09:26:14;6.30;99.90
5924;DHT22;2987;50.884;14.818;2023-12-14T09:28:40;6.40;99.90
5924;DHT22;2987;50.884;14.818;2023-12-14T09:31:06;6.30;99.90
5924;DHT22;2987;50.884;14.818;2023-12-14T09:33:32;6.20;99.90
5924;DHT22;2987;50.884;14.818;2023-12-14T09:35:58;6.20;99.90
5924;DHT22;2987;50.884;14.818;2023-12-14T09:38:24;6.40;99.90
5924;DHT22;2987;50.884;14.818;2023-12-14T09:40:50;6.20;99.90
5924;DHT22;2987;50.884;14.818;2023-12-14T09:43:16;6.30;99.90
5924;DHT22;2987;50.884;14.818;2023-12-14T09:45:42;6.30;99.90
5924;DHT22;2987;50.884;14.818;2023-12-14T09:48:11;6.30;99.90
5924;DHT22;2987;50.884;14.818;2023-12-14T09:50:41;6.20;99.90
5924;DHT22;2987;50.884;14.818;2023-12-14T09:53:08;6.30;99.90
5924;DHT22;2987;50.884;14.818;2023-12-14T09:55:34;6.20;99.90
5924;DHT22;2987;50.884;14.818;2023-12-14T09:58:01;6.30;99.90
5924;DHT22;2987;50.884;14.818;2023-12-14T10:00:34;6.10;99.90
5924;DHT22;2987;50.884;14.818;2023-12-14T10:03:26;6.10;99.90
5924;DHT22;2987;50.884;14.818;2023-12-14T10:05:57;6.30;99.90
5924;DHT22;2987;50.884;14.818;2023-12-14T10:08:24;6.10;99.90
5924;DHT22;2987;50.884;14.818;2023-12-14T10:10:53;6.20;99.90
5924;DHT22;2987;50.884;14.818;2023-12-14T10:13:21;6.10;99.90
5924;DHT22;2987;50.884;14.818;2023-12-14T10:15:48;6.00;99.90
5924;DHT22;2987;50.884;14.818;2023-12-14T10:18:25;6.10;99.90
5924;DHT22;2987;50.884;14.818;2023-12-14T10:20:51;6.20;99.90
5924;DHT22;2987;50.884;14.818;2023-12-14T10:23:17;6.30;99.90
5924;DHT22;2987;50.884;14.818;2023-12-14T10:25:43;6.20;99.90
5924;DHT22;2987;50.884;14.818;2023-12-14T10:28:13;6.30;99.90
5924;DHT22;2987;50.884;14.818;2023-12-14T10:30:40;6.20;99.90
5924;DHT22;2987;50.884;14.818;2023-12-14T10:33:06;6.00;99.90
5924;DHT22;2987;50.884;14.818;2023-12-14T10:35:32;6.30;99.90
5924;DHT22;2987;50.884;14.818;2023-12-14T10:38:02;6.30;99.90
5924;DHT22;2987;50.884;14.818;2023-12-14T10:40:29;6.30;99.90
5924;DHT22;2987;50.884;14.818;2023-12-14T10:42:58;6.10;99.90
5924;DHT22;2987;50.884;14.818;2023-12-14T10:45:31;6.10;99.90
5924;DHT22;2987;50.884;14.818;2023-12-14T10:47:59;6.20;99.90
5924;DHT22;2987;50.884;14.818;2023-12-14T10:50:29;6.40;99.90
5924;DHT22;2987;50.884;14.818;2023-12-14T10:52:58;6.30;99.90
5924;DHT22;2987;50.884;14.818;2023-12-14T10:55:44;6.40;99.90
5924;DHT22;2987;50.884;14.818;2023-12-14T10:58:11;6.20;99.90
5924;DHT22;2987;50.884;14.818;2023-12-14T11:00:38;6.40;99.90
5924;DHT22;2987;50.884;14.818;2023-12-14T11:03:05;6.20;99.90
5924;DHT22;2987;50.884;14.818;2023-12-14T11:05:33;6.40;99.90
5924;DHT22;2987;50.884;14.818;2023-12-14T11:08:01;6.30;99.90
5924;DHT22;2987;50.884;14.818;2023-12-14T11:10:40;6.20;99.90
5924;DHT22;2987;50.884;14.818;2023-12-14T11:15:37;6.20;99.90
5924;DHT22;2987;50.884;14.818;2023-12-14T11:23:14;6.20;99.90
5924;DHT22;2987;50.884;14.818;2023-12-14T11:25:41;6.30;99.90
5924;DHT22;2987;50.884;14.818;2023-12-14T11:28:07;6.30;99.90
5924;DHT22;2987;50.884;14.818;2023-12-14T11:30:35;6.30;99.90
5924;DHT22;2987;50.884;14.818;2023-12-14T11:33:01;6.30;99.90
5924;DHT22;2987;50.884;14.818;2023-12-14T11:35:27;6.20;99.90
5924;DHT22;2987;50.884;14.818;2023-12-14T11:37:53;6.30;99.90
5924;DHT22;2987;50.884;14.818;2023-12-14T11:40:22;6.40;99.90
5924;DHT22;2987;50.884;14.818;2023-12-14T11:43:04;6.20;99.90
5924;DHT22;2987;50.884;14.818;2023-12-14T11:45:35;6.30;99.90
5924;DHT22;2987;50.884;14.818;2023-12-14T11:48:02;6.10;99.90
5924;DHT22;2987;50.884;14.818;2023-12-14T11:50:34;6.30;99.90
5924;DHT22;2987;50.884;14.818;2023-12-14T11:53:01;6.30;99.90
5924;DHT22;2987;50.884;14.818;2023-12-14T11:55:29;6.10;99.90
5924;DHT22;2987;50.884;14.818;2023-12-14T11:57:58;6.20;99.90
5924;DHT22;2987;50.884;14.818;2023-12-14T12:00:29;6.30;99.90
5924;DHT22;2987;50.884;14.818;2023-12-14T12:03:16;6.20;99.90
5924;DHT22;2987;50.884;14.818;2023-12-14T12:05:45;6.30;99.90
5924;DHT22;2987;50.884;14.818;2023-12-14T12:08:13;6.10;99.90
5924;DHT22;2987;50.884;14.818;2023-12-14T12:10:40;6.10;99.90
5924;DHT22;2987;50.884;14.818;2023-12-14T12:13:08;6.10;99.90
5924;DHT22;2987;50.884;14.818;2023-12-14T12:15:37;6.30;99.90
5924;DHT22;2987;50.884;14.818;2023-12-14T12:18:12;6.30;99.90
5924;DHT22;2987;50.884;14.818;2023-12-14T12:20:38;5.90;99.90
5924;DHT22;2987;50.884;14.818;2023-12-14T12:23:04;6.30;99.90
5924;DHT22;2987;50.884;14.818;2023-12-14T12:25:31;6.20;99.90
5924;DHT22;2987;50.884;14.818;2023-12-14T12:27:58;6.30;99.90
5924;DHT22;2987;50.884;14.818;2023-12-14T12:30:24;6.00;99.90
5924;DHT22;2987;50.884;14.818;2023-12-14T12:32:50;6.30;99.90
5924;DHT22;2987;50.884;14.818;2023-12-14T12:35:20;6.00;99.90
5924;DHT22;2987;50.884;14.818;2023-12-14T12:37:46;6.10;99.90
5924;DHT22;2987;50.884;14.818;2023-12-14T12:40:12;6.20;99.90
5924;DHT22;2987;50.884;14.818;2023-12-14T12:42:41;6.30;99.90
5924;DHT22;2987;50.884;14.818;2023-12-14T12:45:07;6.20;99.90
5924;DHT22;2987;50.884;14.818;2023-12-14T12:47:33;5.80;99.90
5924;DHT22;2987;50.884;14.818;2023-12-14T12:50:00;6.00;99.90
5924;DHT22;2987;50.884;14.818;2023-12-14T12:52:26;5.90;99.90
5924;DHT22;2987;50.884;14.818;2023-12-14T12:54:52;6.20;99.90
5924;DHT22;2987;50.884;14.818;2023-12-14T12:57:18;6.00;99.90
5924;DHT22;2987;50.884;14.818;2023-12-14T12:59:44;5.70;99.90
5924;DHT22;2987;50.884;14.818;2023-12-14T13:02:10;5.70;99.90
5924;DHT22;2987;50.884;14.818;2023-12-14T13:04:36;6.00;99.90
5924;DHT22;2987;50.884;14.818;2023-12-14T13:07:03;6.00;99.90
5924;DHT22;2987;50.884;14.818;2023-12-14T13:09:30;5.80;99.90
5924;DHT22;2987;50.884;14.818;2023-12-14T13:11:56;6.00;99.90
5924;DHT22;2987;50.884;14.818;2023-12-14T13:14:21;6.00;99.90
5924;DHT22;2987;50.884;14.818;2023-12-14T13:16:47;5.50;99.90
5924;DHT22;2987;50.884;14.818;2023-12-14T13:19:15;5.50;99.90
5924;DHT22;2987;50.884;14.818;2023-12-14T13:21:41;6.00;99.90
5924;DHT22;2987;50.884;14.818;2023-12-14T13:24:07;5.50;99.90
5924;DHT22;2987;50.884;14.818;2023-12-14T13:26:33;5.90;99.90
5924;DHT22;2987;50.884;14.818;2023-12-14T13:28:59;6.00;99.90
5924;DHT22;2987;50.884;14.818;2023-12-14T13:31:25;6.00;99.90
5924;DHT22;2987;50.884;14.818;2023-12-14T13:33:51;5.90;99.90
5924;DHT22;2987;50.884;14.818;2023-12-14T13:36:19;5.50;99.90
5924;DHT22;2987;50.884;14.818;2023-12-14T13:38:45;5.70;99.90
5924;DHT22;2987;50.884;14.818;2023-12-14T13:41:11;5.40;99.90
5924;DHT22;2987;50.884;14.818;2023-12-14T13:43:37;5.50;99.90
5924;DHT22;2987;50.884;14.818;2023-12-14T13:46:03;5.50;99.90
5924;DHT22;2987;50.884;14.818;2023-12-14T13:48:29;5.40;99.90
5924;DHT22;2987;50.884;14.818;2023-12-14T13:50:55;5.70;99.90
5924;DHT22;2987;50.884;14.818;2023-12-14T13:53:22;5.70;99.90
5924;DHT22;2987;50.884;14.818;2023-12-14T13:55:49;5.70;99.90
5924;DHT22;2987;50.884;14.818;2023-12-14T13:58:15;5.60;99.90
5924;DHT22;2987;50.884;14.818;2023-12-14T14:00:42;5.40;99.90
5924;DHT22;2987;50.884;14.818;2023-12-14T14:03:09;5.40;99.90
5924;DHT22;2987;50.884;14.818;2023-12-14T14:05:35;5.40;99.90
5924;DHT22;2987;50.884;14.818;2023-12-14T14:08:01;5.40;99.90
5924;DHT22;2987;50.884;14.818;2023-12-14T14:10:27;5.50;99.90
5924;DHT22;2987;50.884;14.818;2023-12-14T14:12:53;5.60;99.90
5924;DHT22;2987;50.884;14.818;2023-12-14T14:15:19;5.60;99.90
5924;DHT22;2987;50.884;14.818;2023-12-14T14:17:47;5.40;99.90
5924;DHT22;2987;50.884;14.818;2023-12-14T14:20:18;5.40;99.90
5924;DHT22;2987;50.884;14.818;2023-12-14T14:22:44;5.30;99.90
5924;DHT22;2987;50.884;14.818;2023-12-14T14:25:10;5.20;99.90
5924;DHT22;2987;50.884;14.818;2023-12-14T14:27:36;5.10;99.90
5924;DHT22;2987;50.884;14.818;2023-12-14T14:30:04;5.30;99.90
5924;DHT22;2987;50.884;14.818;2023-12-14T14:32:30;5.10;99.90
5924;DHT22;2987;50.884;14.818;2023-12-14T14:35:01;5.40;99.90
5924;DHT22;2987;50.884;14.818;2023-12-14T14:37:27;5.20;99.90
5924;DHT22;2987;50.884;14.818;2023-12-14T14:39:53;5.30;99.90
5924;DHT22;2987;50.884;14.818;2023-12-14T14:42:19;5.30;99.90
5924;DHT22;2987;50.884;14.818;2023-12-14T14:44:45;5.10;99.90
5924;DHT22;2987;50.884;14.818;2023-12-14T14:47:11;5.30;99.90
5924;DHT22;2987;50.884;14.818;2023-12-14T14:49:38;5.10;99.90
5924;DHT22;2987;50.884;14.818;2023-12-14T14:52:04;4.80;99.90
5924;DHT22;2987;50.884;14.818;2023-12-14T14:54:31;5.20;99.90
5924;DHT22;2987;50.884;14.818;2023-12-14T14:56:57;5.30;99.90
5924;DHT22;2987;50.884;14.818;2023-12-14T14:59:23;5.10;99.90
5924;DHT22;2987;50.884;14.818;2023-12-14T15:01:48;5.10;99.90
5924;DHT22;2987;50.884;14.818;2023-12-14T15:04:14;5.20;99.90
5924;DHT22;2987;50.884;14.818;2023-12-14T15:06:40;5.10;99.90
5924;DHT22;2987;50.884;14.818;2023-12-14T15:09:06;5.30;99.90
5924;DHT22;2987;50.884;14.818;2023-12-14T15:11:35;4.80;99.90
5924;DHT22;2987;50.884;14.818;2023-12-14T15:14:01;5.20;99.90
5924;DHT22;2987;50.884;14.818;2023-12-14T15:16:27;4.80;99.90
5924;DHT22;2987;50.884;14.818;2023-12-14T15:18:53;4.80;99.90
5924;DHT22;2987;50.884;14.818;2023-12-14T15:21:19;5.10;99.90
5924;DHT22;2987;50.884;14.818;2023-12-14T15:23:45;5.30;99.90
5924;DHT22;2987;50.884;14.818;2023-12-14T15:26:13;5.10;99.90
5924;DHT22;2987;50.884;14.818;2023-12-14T15:28:40;4.80;99.90
5924;DHT22;2987;50.884;14.818;2023-12-14T15:31:06;5.10;99.90
5924;DHT22;2987;50.884;14.818;2023-12-14T15:33:32;4.90;99.90
5924;DHT22;2987;50.884;14.818;2023-12-14T15:35:58;5.10;99.90
5924;DHT22;2987;50.884;14.818;2023-12-14T15:38:26;5.00;99.90
5924;DHT22;2987;50.884;14.818;2023-12-14T15:40:54;5.10;99.90
5924;DHT22;2987;50.884;14.818;2023-12-14T15:43:20;5.00;99.90
5924;DHT22;2987;50.884;14.818;2023-12-14T15:45:47;4.90;99.90
5924;DHT22;2987;50.884;14.818;2023-12-14T15:48:14;4.90;99.90
5924;DHT22;2987;50.884;14.818;2023-12-14T15:50:40;5.30;99.90
5924;DHT22;2987;50.884;14.818;2023-12-14T15:53:07;5.00;99.90
5924;DHT22;2987;50.884;14.818;2023-12-14T15:55:36;4.80;99.90
5924;DHT22;2987;50.884;14.818;2023-12-14T15:58:03;4.90;99.90
5924;DHT22;2987;50.884;14.818;2023-12-14T16:00:28;5.10;99.90
5924;DHT22;2987;50.884;14.818;2023-12-14T16:02:54;5.00;99.90
5924;DHT22;2987;50.884;14.818;2023-12-14T16:05:20;4.90;99.90